sensor_id;sensor_type;location;lat;lon;timestamp;pressure;altitude;pressure_sealevel;temperature;humidity
55171;BME280;41060;47.510;8.680;2024-02-15T00:01:36;97632.41;;;10.87;44.88
55171;BME280;41060;47.510;8.680;2024-02-15T00:04:18;97630.25;;;10.92;44.30
55171;BME280;41060;47.510;8.680;2024-02-15T00:07:00;97626.94;;;11.01;44.43
55171;BME280;41060;47.510;8.680;2024-02-15T00:09:42;97631.78;;;11.07;44.29
55171;BME280;41060;47.510;8.680;2024-02-15T00:12:23;97617.63;;;10.96;44.24
55171;BME280;41060;47.510;8.680;2024-02-15T00:15:06;97631.56;;;11.10;44.17
55171;BME280;41060;47.510;8.680;2024-02-15T00:17:49;97634.44;;;11.07;44.02
55171;BME280;41060;47.510;8.680;2024-02-15T00:20:30;97625.88;;;11.04;44.05
55171;BME280;41060;47.510;8.680;2024-02-15T00:23:14;97633.03;;;10.91;44.43
55171;BME280;41060;47.510;8.680;2024-02-15T00:25:56;97628.78;;;10.88;44.38
55171;BME280;41060;47.510;8.680;2024-02-15T00:28:38;97630.94;;;10.83;44.39
55171;BME280;41060;47.510;8.680;2024-02-15T00:31:21;97637.97;;;10.59;45.05
55171;BME280;41060;47.510;8.680;2024-02-15T00:34:08;97638.72;;;10.61;44.90
55171;BME280;41060;47.510;8.680;2024-02-15T00:36:49;97640.28;;;10.63;45.07
55171;BME280;41060;47.510;8.680;2024-02-15T00:39:31;97640.81;;;10.56;45.34
55171;BME280;41060;47.510;8.680;2024-02-15T00:42:13;97621.81;;;10.38;45.29
55171;BME280;41060;47.510;8.680;2024-02-15T00:44:55;97640.75;;;10.19;45.71
55171;BME280;41060;47.510;8.680;2024-02-15T00:47:37;97646.50;;;10.01;45.78
55171;BME280;41060;47.510;8.680;2024-02-15T00:50:23;97645.41;;;10.03;45.58
55171;BME280;41060;47.510;8.680;2024-02-15T00:53:05;97640.44;;;10.11;44.91
55171;BME280;41060;47.510;8.680;2024-02-15T00:55:46;97643.63;;;10.04;45.17
55171;BME280;41060;47.510;8.680;2024-02-15T00:58:28;97639.19;;;9.91;45.26
55171;BME280;41060;47.510;8.680;2024-02-15T01:01:09;97644.03;;;9.85;45.04
55171;BME280;41060;47.510;8.680;2024-02-15T01:03:51;97652.59;;;9.76;45.77
55171;BME280;41060;47.510;8.680;2024-02-15T01:06:34;97640.56;;;9.84;45.46
55171;BME280;41060;47.510;8.680;2024-02-15T01:09:23;97633.13;;;9.89;45.18
55171;BME280;41060;47.510;8.680;2024-02-15T01:12:05;97645.66;;;10.00;45.57
55171;BME280;41060;47.510;8.680;2024-02-15T01:14:47;97644.47;;;10.04;45.70
55171;BME280;41060;47.510;8.680;2024-02-15T01:17:28;97640.13;;;10.03;45.48
55171;BME280;41060;47.510;8.680;2024-02-15T01:20:13;97642.56;;;10.06;45.78
55171;BME280;41060;47.510;8.680;2024-02-15T01:22:56;97612.81;;;9.90;45.41
55171;BME280;41060;47.510;8.680;2024-02-15T01:25:37;97645.44;;;10.16;45.82
55171;BME280;41060;47.510;8.680;2024-02-15T01:28:20;97646.28;;;10.16;45.42
55171;BME280;41060;47.510;8.680;2024-02-15T01:31:02;97646.50;;;10.01;45.89
55171;BME280;41060;47.510;8.680;2024-02-15T01:33:44;97651.31;;;9.69;46.42
55171;BME280;41060;47.510;8.680;2024-02-15T01:36:25;97655.53;;;9.59;46.26
55171;BME280;41060;47.510;8.680;2024-02-15T01:39:09;97647.81;;;9.55;46.64
55171;BME280;41060;47.510;8.680;2024-02-15T01:41:50;97653.84;;;9.58;46.82
55171;BME280;41060;47.510;8.680;2024-02-15T01:44:35;97652.16;;;9.57;45.65
55171;BME280;41060;47.510;8.680;2024-02-15T01:47:19;97596.53;;;9.18;45.81
55171;BME280;41060;47.510;8.680;2024-02-15T01:50:02;97649.47;;;9.44;46.21
55171;BME280;41060;47.510;8.680;2024-02-15T01:52:45;97641.97;;;9.50;46.39
55171;BME280;41060;47.510;8.680;2024-02-15T01:55:31;97637.13;;;9.57;46.65
55171;BME280;41060;47.510;8.680;2024-02-15T01:58:14;97645.59;;;9.62;47.02
55171;BME280;41060;47.510;8.680;2024-02-15T02:00:56;97621.91;;;9.61;46.65
55171;BME280;41060;47.510;8.680;2024-02-15T02:03:39;97636.63;;;9.65;46.47
55171;BME280;41060;47.510;8.680;2024-02-15T02:06:21;97638.09;;;9.56;46.20
55171;BME280;41060;47.510;8.680;2024-02-15T02:09:04;97611.22;;;9.23;46.03
55171;BME280;41060;47.510;8.680;2024-02-15T02:11:47;97639.63;;;9.33;46.36
55171;BME280;41060;47.510;8.680;2024-02-15T02:14:30;97632.44;;;9.21;47.10
55171;BME280;41060;47.510;8.680;2024-02-15T02:17:12;97621.25;;;9.17;47.17
55171;BME280;41060;47.510;8.680;2024-02-15T02:19:54;97626.19;;;9.36;46.91
55171;BME280;41060;47.510;8.680;2024-02-15T02:22:37;97618.72;;;9.43;46.48
55171;BME280;41060;47.510;8.680;2024-02-15T02:25:20;97616.88;;;9.43;46.75
55171;BME280;41060;47.510;8.680;2024-02-15T02:28:03;97620.28;;;9.33;46.39
55171;BME280;41060;47.510;8.680;2024-02-15T02:30:47;97616.69;;;9.34;46.96
55171;BME280;41060;47.510;8.680;2024-02-15T02:33:29;97607.19;;;9.17;46.90
55171;BME280;41060;47.510;8.680;2024-02-15T02:36:11;97604.53;;;9.04;47.13
55171;BME280;41060;47.510;8.680;2024-02-15T02:38:52;97610.53;;;8.79;47.29
55171;BME280;41060;47.510;8.680;2024-02-15T02:41:39;97609.41;;;8.69;47.58
55171;BME280;41060;47.510;8.680;2024-02-15T02:44:24;97607.75;;;8.68;47.39
55171;BME280;41060;47.510;8.680;2024-02-15T02:47:10;97608.38;;;8.72;47.30
55171;BME280;41060;47.510;8.680;2024-02-15T02:49:55;97605.69;;;8.86;46.99
55171;BME280;41060;47.510;8.680;2024-02-15T02:52:41;97600.00;;;8.92;47.21
55171;BME280;41060;47.510;8.680;2024-02-15T02:55:26;97606.06;;;8.94;47.09
55171;BME280;41060;47.510;8.680;2024-02-15T02:58:13;97596.78;;;9.01;46.81
55171;BME280;41060;47.510;8.680;2024-02-15T03:00:58;97593.84;;;9.06;46.85
55171;BME280;41060;47.510;8.680;2024-02-15T03:03:45;97591.75;;;9.11;47.46
55171;BME280;41060;47.510;8.680;2024-02-15T03:06:31;97595.34;;;9.10;47.80
55171;BME280;41060;47.510;8.680;2024-02-15T03:09:16;97597.53;;;9.03;47.54
55171;BME280;41060;47.510;8.680;2024-02-15T03:12:02;97602.97;;;8.88;47.22
55171;BME280;41060;47.510;8.680;2024-02-15T03:14:49;97606.59;;;8.72;47.75
55171;BME280;41060;47.510;8.680;2024-02-15T03:17:34;97599.00;;;8.68;47.54
55171;BME280;41060;47.510;8.680;2024-02-15T03:20:19;97595.38;;;8.69;48.02
55171;BME280;41060;47.510;8.680;2024-02-15T03:23:08;97591.78;;;8.70;47.92
55171;BME280;41060;47.510;8.680;2024-02-15T03:25:53;97593.31;;;8.74;48.33
55171;BME280;41060;47.510;8.680;2024-02-15T03:28:39;97592.94;;;8.66;47.59
55171;BME280;41060;47.510;8.680;2024-02-15T03:31:29;97577.91;;;8.54;48.12
55171;BME280;41060;47.510;8.680;2024-02-15T03:34:15;97589.59;;;8.50;47.93
55171;BME280;41060;47.510;8.680;2024-02-15T03:37:01;97596.63;;;8.22;48.52
55171;BME280;41060;47.510;8.680;2024-02-15T03:39:48;97593.53;;;8.02;49.32
55171;BME280;41060;47.510;8.680;2024-02-15T03:42:33;97588.59;;;8.10;48.74
55171;BME280;41060;47.510;8.680;2024-02-15T03:45:20;97589.91;;;7.88;48.94
55171;BME280;41060;47.510;8.680;2024-02-15T03:48:10;97596.34;;;7.84;48.88
55171;BME280;41060;47.510;8.680;2024-02-15T03:50:56;97586.09;;;7.80;49.21
55171;BME280;41060;47.510;8.680;2024-02-15T03:53:42;97587.50;;;7.85;49.38
55171;BME280;41060;47.510;8.680;2024-02-15T03:56:28;97591.44;;;7.92;49.01
55171;BME280;41060;47.510;8.680;2024-02-15T03:59:13;97590.75;;;8.03;48.97
55171;BME280;41060;47.510;8.680;2024-02-15T04:01:58;97590.13;;;8.14;48.49
55171;BME280;41060;47.510;8.680;2024-02-15T04:04:46;97592.56;;;8.17;48.67
55171;BME280;41060;47.510;8.680;2024-02-15T04:07:32;97587.84;;;8.22;48.59
55171;BME280;41060;47.510;8.680;2024-02-15T04:10:19;97592.56;;;8.31;48.37
55171;BME280;41060;47.510;8.680;2024-02-15T04:13:04;97593.19;;;8.34;48.57
55171;BME280;41060;47.510;8.680;2024-02-15T04:15:51;97595.06;;;8.32;49.10
55171;BME280;41060;47.510;8.680;2024-02-15T04:18:36;97594.25;;;8.18;48.32
55171;BME280;41060;47.510;8.680;2024-02-15T04:21:23;97588.63;;;8.24;48.26
55171;BME280;41060;47.510;8.680;2024-02-15T04:24:09;97589.72;;;8.20;48.12
55171;BME280;41060;47.510;8.680;2024-02-15T04:26:54;97580.78;;;8.22;48.70
55171;BME280;41060;47.510;8.680;2024-02-15T04:29:40;97588.03;;;8.19;48.54
55171;BME280;41060;47.510;8.680;2024-02-15T04:32:29;97582.59;;;8.08;48.58
55171;BME280;41060;47.510;8.680;2024-02-15T04:35:17;97578.44;;;8.04;48.26
55171;BME280;41060;47.510;8.680;2024-02-15T04:38:04;97578.44;;;7.89;48.47
55171;BME280;41060;47.510;8.680;2024-02-15T04:40:52;97580.44;;;7.86;48.90
55171;BME280;41060;47.510;8.680;2024-02-15T04:43:41;97584.69;;;7.58;49.43
55171;BME280;41060;47.510;8.680;2024-02-15T04:46:28;97579.22;;;7.47;49.75
55171;BME280;41060;47.510;8.680;2024-02-15T04:48:55;97587.13;;;7.47;49.66
55171;BME280;41060;47.510;8.680;2024-02-15T04:51:26;97581.50;;;7.53;49.02
55171;BME280;41060;47.510;8.680;2024-02-15T04:53:54;97575.75;;;7.47;49.14
55171;BME280;41060;47.510;8.680;2024-02-15T04:56:23;97556.72;;;7.28;49.10
55171;BME280;41060;47.510;8.680;2024-02-15T04:58:50;97582.22;;;7.41;49.55
55171;BME280;41060;47.510;8.680;2024-02-15T05:01:17;97578.84;;;7.39;49.77
55171;BME280;41060;47.510;8.680;2024-02-15T05:03:45;97584.03;;;7.41;49.64
55171;BME280;41060;47.510;8.680;2024-02-15T05:06:12;97582.63;;;7.49;49.04
55171;BME280;41060;47.510;8.680;2024-02-15T05:08:39;97580.38;;;7.57;49.54
55171;BME280;41060;47.510;8.680;2024-02-15T05:11:11;97576.91;;;7.57;48.86
55171;BME280;41060;47.510;8.680;2024-02-15T05:13:43;97573.97;;;7.47;49.31
55171;BME280;41060;47.510;8.680;2024-02-15T05:16:13;97581.19;;;7.44;48.96
55171;BME280;41060;47.510;8.680;2024-02-15T05:18:41;97583.09;;;7.42;49.05
55171;BME280;41060;47.510;8.680;2024-02-15T05:21:08;97584.19;;;7.38;48.90
55171;BME280;41060;47.510;8.680;2024-02-15T05:23:36;97579.84;;;7.37;48.82
55171;BME280;41060;47.510;8.680;2024-02-15T05:26:05;97580.94;;;7.48;49.14
55171;BME280;41060;47.510;8.680;2024-02-15T05:28:34;97579.91;;;7.65;50.32
55171;BME280;41060;47.510;8.680;2024-02-15T05:31:11;97585.78;;;7.84;50.30
55171;BME280;41060;47.510;8.680;2024-02-15T05:33:42;97547.31;;;7.66;48.97
55171;BME280;41060;47.510;8.680;2024-02-15T05:36:10;97578.06;;;7.95;48.41
55171;BME280;41060;47.510;8.680;2024-02-15T05:38:37;97576.66;;;7.90;48.68
55171;BME280;41060;47.510;8.680;2024-02-15T05:41:04;97579.38;;;7.88;48.48
55171;BME280;41060;47.510;8.680;2024-02-15T05:43:34;97575.53;;;7.94;47.75
55171;BME280;41060;47.510;8.680;2024-02-15T05:46:02;97569.97;;;7.98;47.90
55171;BME280;41060;47.510;8.680;2024-02-15T05:48:28;97577.31;;;8.08;47.14
55171;BME280;41060;47.510;8.680;2024-02-15T05:50:56;97568.34;;;8.10;47.29
55171;BME280;41060;47.510;8.680;2024-02-15T05:53:24;97573.16;;;8.04;47.53
55171;BME280;41060;47.510;8.680;2024-02-15T05:55:58;97557.72;;;7.83;47.54
55171;BME280;41060;47.510;8.680;2024-02-15T05:58:26;97563.66;;;7.73;47.82
55171;BME280;41060;47.510;8.680;2024-02-15T06:00:54;97578.16;;;7.36;48.57
55171;BME280;41060;47.510;8.680;2024-02-15T06:03:20;97567.69;;;7.20;48.81
55171;BME280;41060;47.510;8.680;2024-02-15T06:05:49;97566.84;;;7.19;48.80
55171;BME280;41060;47.510;8.680;2024-02-15T06:08:15;97569.59;;;7.02;49.44
55171;BME280;41060;47.510;8.680;2024-02-15T06:10:42;97563.94;;;6.94;49.40
55171;BME280;41060;47.510;8.680;2024-02-15T06:13:10;97556.97;;;6.93;49.28
55171;BME280;41060;47.510;8.680;2024-02-15T06:15:36;97552.84;;;6.89;49.16
55171;BME280;41060;47.510;8.680;2024-02-15T06:18:04;97561.81;;;6.85;49.85
55171;BME280;41060;47.510;8.680;2024-02-15T06:20:35;97562.44;;;6.90;49.36
55171;BME280;41060;47.510;8.680;2024-02-15T06:23:01;97558.59;;;6.96;49.27
55171;BME280;41060;47.510;8.680;2024-02-15T06:25:32;97552.88;;;7.03;49.14
55171;BME280;41060;47.510;8.680;2024-02-15T06:27:59;97559.13;;;7.16;49.09
55171;BME280;41060;47.510;8.680;2024-02-15T06:30:28;97531.38;;;7.11;48.68
55171;BME280;41060;47.510;8.680;2024-02-15T06:33:14;97549.75;;;7.27;48.98
55171;BME280;41060;47.510;8.680;2024-02-15T06:35:58;97559.41;;;7.12;48.95
55171;BME280;41060;47.510;8.680;2024-02-15T06:38:43;97560.53;;;6.92;49.72
55171;BME280;41060;47.510;8.680;2024-02-15T06:41:27;97555.75;;;6.99;49.35
55171;BME280;41060;47.510;8.680;2024-02-15T06:43:55;97560.09;;;7.00;49.70
55171;BME280;41060;47.510;8.680;2024-02-15T06:46:22;97570.63;;;7.00;49.93
55171;BME280;41060;47.510;8.680;2024-02-15T06:48:51;97578.38;;;6.87;50.25
55171;BME280;41060;47.510;8.680;2024-02-15T06:51:18;97575.22;;;6.51;50.80
55171;BME280;41060;47.510;8.680;2024-02-15T06:53:45;97583.00;;;6.21;51.89
55171;BME280;41060;47.510;8.680;2024-02-15T06:56:12;97581.25;;;6.21;52.19
55171;BME280;41060;47.510;8.680;2024-02-15T06:58:40;97563.69;;;6.37;51.58
55171;BME280;41060;47.510;8.680;2024-02-15T07:01:06;97583.09;;;6.66;51.17
55171;BME280;41060;47.510;8.680;2024-02-15T07:03:34;97573.72;;;6.76;50.85
55171;BME280;41060;47.510;8.680;2024-02-15T07:06:03;97584.59;;;6.86;50.77
55171;BME280;41060;47.510;8.680;2024-02-15T07:08:29;97583.06;;;6.98;50.65
55171;BME280;41060;47.510;8.680;2024-02-15T07:10:57;97580.41;;;6.98;50.61
55171;BME280;41060;47.510;8.680;2024-02-15T07:13:24;97578.03;;;6.93;50.62
55171;BME280;41060;47.510;8.680;2024-02-15T07:15:52;97578.28;;;7.04;50.41
55171;BME280;41060;47.510;8.680;2024-02-15T07:18:18;97576.22;;;7.09;50.13
55171;BME280;41060;47.510;8.680;2024-02-15T07:20:47;97583.59;;;7.18;50.06
55171;BME280;41060;47.510;8.680;2024-02-15T07:23:15;97578.88;;;7.23;50.11
55171;BME280;41060;47.510;8.680;2024-02-15T07:25:41;97580.31;;;7.29;50.36
55171;BME280;41060;47.510;8.680;2024-02-15T07:28:08;97580.44;;;7.42;50.00
55171;BME280;41060;47.510;8.680;2024-02-15T07:30:35;97577.47;;;7.62;49.57
55171;BME280;41060;47.510;8.680;2024-02-15T07:33:03;97572.53;;;7.72;49.69
55171;BME280;41060;47.510;8.680;2024-02-15T07:35:32;97572.41;;;7.73;49.86
55171;BME280;41060;47.510;8.680;2024-02-15T07:38:00;97570.16;;;7.81;49.75
55171;BME280;41060;47.510;8.680;2024-02-15T07:40:28;97559.13;;;7.89;49.69
55171;BME280;41060;47.510;8.680;2024-02-15T07:42:56;97518.75;;;7.74;49.48
55171;BME280;41060;47.510;8.680;2024-02-15T07:45:24;97558.00;;;8.07;49.63
55171;BME280;41060;47.510;8.680;2024-02-15T07:47:50;97562.59;;;8.18;49.35
55171;BME280;41060;47.510;8.680;2024-02-15T07:50:18;97560.44;;;8.24;49.14
55171;BME280;41060;47.510;8.680;2024-02-15T07:52:48;97553.06;;;8.29;49.40
55171;BME280;41060;47.510;8.680;2024-02-15T07:55:19;97544.84;;;8.34;48.84
55171;BME280;41060;47.510;8.680;2024-02-15T07:57:47;97548.53;;;8.46;49.20
55171;BME280;41060;47.510;8.680;2024-02-15T08:00:17;97548.56;;;8.58;48.98
55171;BME280;41060;47.510;8.680;2024-02-15T08:02:44;97544.50;;;8.67;48.77
55171;BME280;41060;47.510;8.680;2024-02-15T08:05:12;97537.34;;;8.82;48.97
55171;BME280;41060;47.510;8.680;2024-02-15T08:07:41;97545.63;;;8.90;49.32
55171;BME280;41060;47.510;8.680;2024-02-15T08:10:10;97537.03;;;8.86;49.10
55171;BME280;41060;47.510;8.680;2024-02-15T08:12:40;97528.72;;;8.92;48.89
55171;BME280;41060;47.510;8.680;2024-02-15T08:15:10;97522.63;;;9.04;48.54
55171;BME280;41060;47.510;8.680;2024-02-15T08:17:39;97518.91;;;9.07;48.70
55171;BME280;41060;47.510;8.680;2024-02-15T08:20:10;97500.94;;;8.99;48.92
55171;BME280;41060;47.510;8.680;2024-02-15T08:22:38;97499.16;;;9.00;49.07
55171;BME280;41060;47.510;8.680;2024-02-15T08:25:06;97462.81;;;8.91;48.88
55171;BME280;41060;47.510;8.680;2024-02-15T08:27:38;97489.59;;;9.24;48.66
55171;BME280;41060;47.510;8.680;2024-02-15T08:30:12;97473.44;;;9.29;48.50
55171;BME280;41060;47.510;8.680;2024-02-15T08:32:39;97487.38;;;9.43;48.81
55171;BME280;41060;47.510;8.680;2024-02-15T08:35:10;97482.00;;;9.45;48.44
55171;BME280;41060;47.510;8.680;2024-02-15T08:37:36;97460.53;;;9.24;49.06
55171;BME280;41060;47.510;8.680;2024-02-15T08:40:05;97474.59;;;9.25;49.74
55171;BME280;41060;47.510;8.680;2024-02-15T08:42:40;97474.03;;;9.20;49.36
55171;BME280;41060;47.510;8.680;2024-02-15T08:45:07;97465.50;;;9.29;48.75
55171;BME280;41060;47.510;8.680;2024-02-15T08:47:37;97466.34;;;9.29;49.28
55171;BME280;41060;47.510;8.680;2024-02-15T08:50:06;97456.84;;;9.27;49.08
55171;BME280;41060;47.510;8.680;2024-02-15T08:52:34;97448.41;;;9.34;49.78
55171;BME280;41060;47.510;8.680;2024-02-15T08:55:04;97445.69;;;9.22;49.75
55171;BME280;41060;47.510;8.680;2024-02-15T08:57:32;97433.91;;;9.27;50.18
55171;BME280;41060;47.510;8.680;2024-02-15T08:59:59;97445.44;;;9.26;50.22
55171;BME280;41060;47.510;8.680;2024-02-15T09:02:29;97442.13;;;9.23;49.46
55171;BME280;41060;47.510;8.680;2024-02-15T09:04:59;97438.34;;;9.39;49.63
55171;BME280;41060;47.510;8.680;2024-02-15T09:07:26;97424.88;;;9.68;48.99
55171;BME280;41060;47.510;8.680;2024-02-15T09:09:52;97425.50;;;9.59;49.48
55171;BME280;41060;47.510;8.680;2024-02-15T09:12:21;97422.28;;;9.91;48.68
55171;BME280;41060;47.510;8.680;2024-02-15T09:14:47;97435.47;;;10.04;48.67
55171;BME280;41060;47.510;8.680;2024-02-15T09:17:14;97425.94;;;10.25;48.54
55171;BME280;41060;47.510;8.680;2024-02-15T09:19:41;97422.53;;;10.36;48.34
55171;BME280;41060;47.510;8.680;2024-02-15T09:22:09;97428.84;;;10.22;48.35
55171;BME280;41060;47.510;8.680;2024-02-15T09:24:37;97424.41;;;10.23;48.56
55171;BME280;41060;47.510;8.680;2024-02-15T09:27:04;97421.41;;;10.27;49.10
55171;BME280;41060;47.510;8.680;2024-02-15T09:29:31;97416.16;;;10.39;49.19
55171;BME280;41060;47.510;8.680;2024-02-15T09:31:58;97412.63;;;10.62;49.67
55171;BME280;41060;47.510;8.680;2024-02-15T09:34:27;97409.34;;;10.71;49.22
55171;BME280;41060;47.510;8.680;2024-02-15T09:36:54;97396.16;;;10.93;48.88
55171;BME280;41060;47.510;8.680;2024-02-15T09:39:23;97398.47;;;10.98;48.10
55171;BME280;41060;47.510;8.680;2024-02-15T09:41:50;97400.38;;;11.07;47.91
55171;BME280;41060;47.510;8.680;2024-02-15T09:44:23;97379.28;;;10.94;48.10
55171;BME280;41060;47.510;8.680;2024-02-15T09:47:02;97411.84;;;11.30;47.66
55171;BME280;41060;47.510;8.680;2024-02-15T09:49:30;97394.63;;;11.46;47.00
55171;BME280;41060;47.510;8.680;2024-02-15T09:52:02;97399.34;;;11.54;46.84
55171;BME280;41060;47.510;8.680;2024-02-15T09:54:31;97389.44;;;11.67;46.78
55171;BME280;41060;47.510;8.680;2024-02-15T09:57:01;97376.78;;;11.71;46.88
55171;BME280;41060;47.510;8.680;2024-02-15T09:59:28;97384.28;;;11.55;47.42
55171;BME280;41060;47.510;8.680;2024-02-15T10:01:58;97382.81;;;11.50;47.74
55171;BME280;41060;47.510;8.680;2024-02-15T10:04:25;97391.59;;;11.29;47.43
55171;BME280;41060;47.510;8.680;2024-02-15T10:06:52;97401.38;;;11.06;48.96
55171;BME280;41060;47.510;8.680;2024-02-15T10:09:26;97356.38;;;10.71;49.49
55171;BME280;41060;47.510;8.680;2024-02-15T10:11:56;97370.78;;;11.35;48.39
55171;BME280;41060;47.510;8.680;2024-02-15T10:14:24;97391.59;;;12.07;47.36
55171;BME280;41060;47.510;8.680;2024-02-15T10:16:51;97390.78;;;12.38;46.62
55171;BME280;41060;47.510;8.680;2024-02-15T10:19:20;97380.28;;;12.25;45.72
55171;BME280;41060;47.510;8.680;2024-02-15T10:21:51;97387.84;;;12.41;46.13
55171;BME280;41060;47.510;8.680;2024-02-15T10:24:18;97391.53;;;12.82;46.17
55171;BME280;41060;47.510;8.680;2024-02-15T10:26:48;97383.78;;;13.11;45.32
55171;BME280;41060;47.510;8.680;2024-02-15T10:29:16;97378.09;;;13.25;44.59
55171;BME280;41060;47.510;8.680;2024-02-15T10:31:52;97379.69;;;13.27;44.22
55171;BME280;41060;47.510;8.680;2024-02-15T10:34:20;97389.06;;;13.31;43.58
55171;BME280;41060;47.510;8.680;2024-02-15T10:36:53;97372.31;;;13.40;42.80
55171;BME280;41060;47.510;8.680;2024-02-15T10:39:22;97373.03;;;13.43;42.50
55171;BME280;41060;47.510;8.680;2024-02-15T10:41:50;97370.22;;;13.44;42.71
55171;BME280;41060;47.510;8.680;2024-02-15T10:44:22;97359.38;;;13.57;42.89
55171;BME280;41060;47.510;8.680;2024-02-15T10:46:52;97356.88;;;13.65;42.95
55171;BME280;41060;47.510;8.680;2024-02-15T10:49:19;97356.88;;;13.74;43.17
55171;BME280;41060;47.510;8.680;2024-02-15T10:51:50;97339.91;;;13.66;43.47
55171;BME280;41060;47.510;8.680;2024-02-15T10:54:30;97363.22;;;13.83;43.47
55171;BME280;41060;47.510;8.680;2024-02-15T10:57:03;97358.59;;;13.85;44.29
55171;BME280;41060;47.510;8.680;2024-02-15T10:59:34;97347.31;;;14.02;43.47
55171;BME280;41060;47.510;8.680;2024-02-15T11:02:18;97331.22;;;14.13;43.17
55171;BME280;41060;47.510;8.680;2024-02-15T11:04:53;97317.41;;;13.89;43.69
55171;BME280;41060;47.510;8.680;2024-02-15T11:07:23;97334.44;;;13.58;43.72
55171;BME280;41060;47.510;8.680;2024-02-15T11:09:52;97336.78;;;13.51;43.52
55171;BME280;41060;47.510;8.680;2024-02-15T11:12:19;97331.53;;;13.70;44.35
55171;BME280;41060;47.510;8.680;2024-02-15T11:14:47;97321.16;;;13.67;43.77
55171;BME280;41060;47.510;8.680;2024-02-15T11:17:45;97322.38;;;13.54;43.43
55171;BME280;41060;47.510;8.680;2024-02-15T11:20:47;97314.88;;;13.78;43.75
55171;BME280;41060;47.510;8.680;2024-02-15T11:23:25;97311.41;;;13.87;42.40
55171;BME280;41060;47.510;8.680;2024-02-15T11:26:01;97307.97;;;14.15;42.64
55171;BME280;41060;47.510;8.680;2024-02-15T11:28:38;97290.00;;;14.46;41.73
55171;BME280;41060;47.510;8.680;2024-02-15T11:31:10;97308.50;;;14.67;41.35
55171;BME280;41060;47.510;8.680;2024-02-15T11:33:58;97305.25;;;14.83;41.25
55171;BME280;41060;47.510;8.680;2024-02-15T11:36:30;97302.78;;;14.99;41.16
55171;BME280;41060;47.510;8.680;2024-02-15T11:39:00;97296.84;;;15.24;40.47
55171;BME280;41060;47.510;8.680;2024-02-15T11:41:29;97295.09;;;14.96;40.25
55171;BME280;41060;47.510;8.680;2024-02-15T11:43:56;97289.03;;;15.04;40.08
55171;BME280;41060;47.510;8.680;2024-02-15T11:46:25;97277.53;;;15.13;40.13
55171;BME280;41060;47.510;8.680;2024-02-15T11:48:56;97289.75;;;15.43;39.99
55171;BME280;41060;47.510;8.680;2024-02-15T11:51:32;97277.34;;;15.24;39.76
55171;BME280;41060;47.510;8.680;2024-02-15T11:54:03;97287.25;;;14.85;40.68
55171;BME280;41060;47.510;8.680;2024-02-15T11:56:49;97287.00;;;14.78;41.16
55171;BME280;41060;47.510;8.680;2024-02-15T11:59:21;97281.63;;;14.98;40.47
55171;BME280;41060;47.510;8.680;2024-02-15T12:01:59;97274.88;;;15.03;40.14
55171;BME280;41060;47.510;8.680;2024-02-15T12:04:43;97276.69;;;15.40;39.56
55171;BME280;41060;47.510;8.680;2024-02-15T12:07:28;97268.75;;;15.75;39.47
55171;BME280;41060;47.510;8.680;2024-02-15T12:10:16;97263.75;;;15.90;38.84
55171;BME280;41060;47.510;8.680;2024-02-15T12:13:00;97255.97;;;15.96;38.60
55171;BME280;41060;47.510;8.680;2024-02-15T12:15:55;97256.53;;;16.18;38.51
55171;BME280;41060;47.510;8.680;2024-02-15T12:18:42;97251.19;;;16.35;38.53
55171;BME280;41060;47.510;8.680;2024-02-15T12:21:14;97250.00;;;16.56;37.74
55171;BME280;41060;47.510;8.680;2024-02-15T12:23:42;97246.09;;;16.68;37.71
55171;BME280;41060;47.510;8.680;2024-02-15T12:26:10;97238.97;;;16.76;38.03
55171;BME280;41060;47.510;8.680;2024-02-15T12:28:40;97235.44;;;16.76;37.02
55171;BME280;41060;47.510;8.680;2024-02-15T12:31:08;97234.78;;;16.56;37.23
55171;BME280;41060;47.510;8.680;2024-02-15T12:33:38;97231.63;;;16.53;38.22
55171;BME280;41060;47.510;8.680;2024-02-15T12:36:09;97216.16;;;16.64;37.55
55171;BME280;41060;47.510;8.680;2024-02-15T12:38:36;97216.63;;;16.60;37.54
55171;BME280;41060;47.510;8.680;2024-02-15T12:41:04;97212.63;;;16.38;37.83
55171;BME280;41060;47.510;8.680;2024-02-15T12:43:43;97211.47;;;16.40;38.17
55171;BME280;41060;47.510;8.680;2024-02-15T12:46:10;97210.47;;;16.41;37.97
55171;BME280;41060;47.510;8.680;2024-02-15T12:48:37;97191.56;;;16.35;38.68
55171;BME280;41060;47.510;8.680;2024-02-15T12:51:14;97193.44;;;16.42;38.67
55171;BME280;41060;47.510;8.680;2024-02-15T12:53:41;97187.91;;;16.62;38.04
55171;BME280;41060;47.510;8.680;2024-02-15T12:56:09;97171.44;;;16.74;38.02
55171;BME280;41060;47.510;8.680;2024-02-15T12:58:35;97190.41;;;16.89;38.28
55171;BME280;41060;47.510;8.680;2024-02-15T13:01:04;97183.84;;;16.83;38.44
55171;BME280;41060;47.510;8.680;2024-02-15T13:03:31;97182.81;;;16.76;38.63
55171;BME280;41060;47.510;8.680;2024-02-15T13:05:58;97183.06;;;16.91;39.01
55171;BME280;41060;47.510;8.680;2024-02-15T13:08:26;97174.53;;;16.96;38.40
55171;BME280;41060;47.510;8.680;2024-02-15T13:10:53;97173.81;;;17.11;38.33
55171;BME280;41060;47.510;8.680;2024-02-15T13:13:21;97170.16;;;17.20;38.10
55171;BME280;41060;47.510;8.680;2024-02-15T13:15:48;97174.72;;;17.28;37.75
55171;BME280;41060;47.510;8.680;2024-02-15T13:18:15;97168.56;;;17.36;37.81
55171;BME280;41060;47.510;8.680;2024-02-15T13:20:43;97169.56;;;17.43;37.73
55171;BME280;41060;47.510;8.680;2024-02-15T13:23:10;97163.72;;;17.47;37.47
55171;BME280;41060;47.510;8.680;2024-02-15T13:25:49;97155.16;;;17.44;37.35
55171;BME280;41060;47.510;8.680;2024-02-15T13:28:17;97158.84;;;17.35;37.09
55171;BME280;41060;47.510;8.680;2024-02-15T13:30:45;97150.19;;;17.57;36.54
55171;BME280;41060;47.510;8.680;2024-02-15T13:33:12;97148.81;;;17.45;36.67
55171;BME280;41060;47.510;8.680;2024-02-15T13:35:39;97143.94;;;17.32;37.52
55171;BME280;41060;47.510;8.680;2024-02-15T13:38:07;97138.22;;;17.19;37.24
55171;BME280;41060;47.510;8.680;2024-02-15T13:40:39;97126.69;;;17.18;37.35
55171;BME280;41060;47.510;8.680;2024-02-15T13:43:09;97135.38;;;17.20;37.06
55171;BME280;41060;47.510;8.680;2024-02-15T13:45:39;97126.13;;;17.07;37.40
55171;BME280;41060;47.510;8.680;2024-02-15T13:48:08;97111.28;;;17.12;37.12